Airfield :
LOGIN :

Register | Disclaimer

   EN    FR    IT 

 










Legend :    VFR   Marginal VFR   IFR   Intensive IFR   Very Intensive IFR
Visi :
Ceiling :
>= 8 km
>= 3000ft
5 to 8 km
1000 to 3000 ft
1500m to 5 km
500 to 1000 ft
800 to 1500m
200 to 500 ft
< 800m
< 200 ft
Symbols :   Thunderstorms  Fog  Heavy snow  Heavy precipitations  Wind > 20 kt
SIGMETs :     Misc.  Thunderstorms  Icing  Turbulence  Mountain Waves  Volcanic Ashes






- Airport Elevation : 1682 ft
- IATA code : VIT


LEVT - Vitoria Gasteiz

CURRENT METAR :
  • 142230Z VRB01KT 9999 FEW028 10/09 Q1023

EXPIRED METARs :
  • 142200Z 18002KT 9999 FEW028 11/09 Q1023
  • 142130Z 01003KT 320V060 9999 FEW028 13/09 Q1023
  • 142100Z 02005KT 9999 FEW028 13/10 Q1023
  • 142030Z 02006KT 9999 FEW028 14/10 Q1022
  • 142000Z 02007KT 350V050 9999 FEW028 14/10 Q1022

TAF TAF LEVT
Valid from the 14 at 18:00 until the 15 at 18:00 UTC


141700Z 1418/1518 VRB05KT 9999 FEW030 TX22/1514Z TN11/1506Z
TEMPO 1418/1419 01012KT
TEMPO 1500/1508 BKN010
PROB40
TEMPO 1500/1508 3000 -RA BR BKN005 BKN010
PROB30
TEMPO 1503/1507 0350 BCFG VV001
TEMPO 1512/1518 01010KT



MET'MAP, your aeronautical weather chart ! - Copyright ORBIFLY December 2007 - Disclaimer

ORBIFLY MET'MAP TEAM :

Programming & Development : Alexandra Zaïnal
Concept & original design : Baudouin d'Aumeries
Assistance for programming : Marc-Olivier Méhu
Technical & hardware support : Manuel Goepfert

Contact : metmap@orbifly.com




SOURCES & CREDITS :

   NOAA